createdAt,value
2022-09-23T00:01:21.395Z,6.50
2022-09-23T00:03:49.848Z,6.40
2022-09-23T00:06:21.569Z,6.40
2022-09-23T00:08:50.096Z,6.30
2022-09-23T00:11:22.214Z,6.20
2022-09-23T00:13:56.169Z,5.90
2022-09-23T00:16:31.016Z,6.20
2022-09-23T00:18:58.509Z,6.10
2022-09-23T00:21:25.881Z,6.30
2022-09-23T00:23:53.845Z,5.90
2022-09-23T00:26:22.778Z,6.00
2022-09-23T00:28:54.202Z,5.70
2022-09-23T00:31:25.979Z,5.70
2022-09-23T00:33:57.299Z,5.80
2022-09-23T00:36:26.406Z,5.80
2022-09-23T00:38:55.229Z,5.60
2022-09-23T00:41:23.495Z,5.90
2022-09-23T00:43:57.710Z,5.90
2022-09-23T00:46:51.053Z,5.70
2022-09-23T00:49:36.258Z,5.40
2022-09-23T00:52:14.249Z,6.00
2022-09-23T00:54:42.891Z,6.00
2022-09-23T00:57:11.731Z,5.50
2022-09-23T00:59:39.745Z,5.40
2022-09-23T01:02:08.074Z,6.50
2022-09-23T01:04:36.323Z,5.80
2022-09-23T01:07:03.834Z,5.90
2022-09-23T01:09:31.252Z,5.40
2022-09-23T01:12:13.448Z,5.80
2022-09-23T01:15:20.377Z,6.00
2022-09-23T01:18:02.445Z,6.20
2022-09-23T01:20:56.230Z,5.90
2022-09-23T01:23:54.031Z,5.70
2022-09-23T01:26:52.674Z,5.80
2022-09-23T01:29:41.176Z,5.40
2022-09-23T01:32:38.710Z,5.50
2022-09-23T01:35:25.020Z,5.30
2022-09-23T01:38:15.935Z,5.60
2022-09-23T01:40:55.175Z,6.20
2022-09-23T01:43:34.744Z,5.50
2022-09-23T01:46:09.444Z,5.80
2022-09-23T01:48:53.818Z,6.00
2022-09-23T01:51:28.293Z,6.30
2022-09-23T01:54:10.763Z,5.50
2022-09-23T01:56:52.442Z,5.80
2022-09-23T01:59:29.345Z,5.80
2022-09-23T02:02:49.474Z,5.50
2022-09-23T02:05:44.725Z,5.70
2022-09-23T02:08:19.153Z,5.70
2022-09-23T02:11:04.672Z,6.00
2022-09-23T02:13:43.395Z,6.10
2022-09-23T02:16:22.630Z,5.90
2022-09-23T02:19:02.668Z,6.00
2022-09-23T02:21:36.228Z,6.00
2022-09-23T02:24:14.581Z,6.10
2022-09-23T02:27:00.259Z,5.20
2022-09-23T02:30:06.658Z,6.00
2022-09-23T02:32:56.613Z,5.80
2022-09-23T02:35:37.201Z,5.40
2022-09-23T02:38:37.478Z,5.80
2022-09-23T02:41:11.292Z,5.50
2022-09-23T02:43:59.908Z,5.60
2022-09-23T02:46:30.132Z,6.00
2022-09-23T02:49:12.838Z,6.30
2022-09-23T02:51:40.964Z,6.00
2022-09-23T02:54:14.986Z,5.90
2022-09-23T02:56:42.821Z,6.20
2022-09-23T02:59:11.960Z,5.30
2022-09-23T03:02:22.490Z,5.80
2022-09-23T03:05:22.347Z,6.40
2022-09-23T03:08:22.992Z,6.20
2022-09-23T03:11:10.530Z,6.10
2022-09-23T03:13:51.265Z,6.80
2022-09-23T03:16:53.688Z,6.00
2022-09-23T03:19:55.120Z,6.80
2022-09-23T03:22:36.037Z,6.30
2022-09-23T03:25:15.974Z,6.20
2022-09-23T03:27:45.605Z,6.80
2022-09-23T03:30:13.850Z,6.70
2022-09-23T03:32:45.718Z,5.90
2022-09-23T03:35:14.223Z,5.90
2022-09-23T03:38:17.411Z,6.30
2022-09-23T03:40:47.741Z,5.90
2022-09-23T03:43:15.305Z,5.50
2022-09-23T03:45:42.829Z,5.50
2022-09-23T03:48:10.319Z,6.10
2022-09-23T03:50:39.206Z,6.00
2022-09-23T03:53:07.000Z,6.10
2022-09-23T03:55:34.840Z,5.80
2022-09-23T03:58:03.218Z,5.90
2022-09-23T04:00:30.663Z,5.70
2022-09-23T04:02:57.958Z,5.80
2022-09-23T04:05:25.291Z,5.70
2022-09-23T04:07:53.102Z,6.00
2022-09-23T04:10:20.900Z,5.70
2022-09-23T04:12:48.279Z,5.50
2022-09-23T04:15:15.710Z,5.70
2022-09-23T04:17:43.045Z,6.00
2022-09-23T04:20:10.476Z,5.60
2022-09-23T04:22:38.716Z,5.50
2022-09-23T04:25:07.321Z,6.00
2022-09-23T04:27:37.732Z,6.10
2022-09-23T04:30:07.072Z,5.70
2022-09-23T04:32:34.453Z,5.40
2022-09-23T04:35:01.810Z,5.50
2022-09-23T04:37:29.477Z,5.80
2022-09-23T04:39:56.827Z,5.80
2022-09-23T04:42:24.292Z,5.40
2022-09-23T04:44:51.624Z,5.40
2022-09-23T04:47:19.406Z,5.50
2022-09-23T04:49:46.743Z,5.40
2022-09-23T04:52:14.112Z,5.40
2022-09-23T04:54:41.769Z,6.40
2022-09-23T04:57:11.139Z,5.40
2022-09-23T04:59:38.530Z,5.60
2022-09-23T05:02:05.886Z,6.10
2022-09-23T05:04:33.249Z,5.80
2022-09-23T05:07:03.367Z,5.10
2022-09-23T05:09:31.285Z,5.20
2022-09-23T05:11:58.776Z,4.90
2022-09-23T05:14:26.112Z,6.00
2022-09-23T05:16:53.431Z,5.60
2022-09-23T05:19:20.797Z,5.40
2022-09-23T05:21:48.118Z,5.50
2022-09-23T05:24:16.737Z,5.60
2022-09-23T05:26:44.116Z,5.30
2022-09-23T05:29:11.496Z,5.40
2022-09-23T05:31:38.882Z,5.30
2022-09-23T05:34:06.646Z,5.60
2022-09-23T05:36:38.609Z,5.30
2022-09-23T05:39:08.328Z,5.50
2022-09-23T05:41:37.033Z,5.70
2022-09-23T05:44:05.022Z,5.70
2022-09-23T05:46:33.182Z,5.50
2022-09-23T05:49:03.203Z,5.40
2022-09-23T05:51:32.862Z,6.10
2022-09-23T05:54:02.996Z,4.90
2022-09-23T05:56:32.547Z,5.70
2022-09-23T05:59:01.839Z,5.60
2022-09-23T06:01:34.123Z,5.80
2022-09-23T06:04:05.378Z,6.10
2022-09-23T06:06:42.134Z,5.60
2022-09-23T06:09:14.797Z,5.90
2022-09-23T06:11:42.485Z,6.10
2022-09-23T06:14:13.875Z,6.00
2022-09-23T06:19:09.874Z,6.20
2022-09-23T06:21:39.577Z,5.60
2022-09-23T06:24:09.260Z,5.90
2022-09-23T06:26:38.304Z,6.60
2022-09-23T06:29:14.587Z,6.00
2022-09-23T06:31:43.356Z,6.10
2022-09-23T06:34:14.633Z,6.30
2022-09-23T06:39:15.124Z,6.10
2022-09-23T06:41:44.086Z,5.90
2022-09-23T06:44:11.479Z,6.10
2022-09-23T06:46:39.449Z,6.40
2022-09-23T06:49:06.833Z,5.60
2022-09-23T06:51:34.488Z,6.40
2022-09-23T06:54:01.939Z,6.90
2022-09-23T06:56:30.787Z,6.60
2022-09-23T06:59:01.297Z,6.30
2022-09-23T07:01:28.883Z,6.30
2022-09-23T07:03:56.324Z,7.70
2022-09-23T07:06:23.750Z,9.10
2022-09-23T07:08:51.298Z,8.60
2022-09-23T07:11:22.491Z,9.10
2022-09-23T07:13:49.965Z,9.20
2022-09-23T07:16:17.602Z,8.20
2022-09-23T07:18:45.788Z,8.40
2022-09-23T07:21:17.197Z,7.90
2022-09-23T07:26:19.828Z,7.30
2022-09-23T07:28:47.822Z,8.00
2022-09-23T07:31:29.166Z,7.80
2022-09-23T07:34:01.345Z,8.10
2022-09-23T07:36:32.700Z,6.60
2022-09-23T07:41:32.518Z,7.10
2022-09-23T07:44:01.220Z,7.40
2022-09-23T07:46:36.137Z,6.60
2022-09-23T07:49:05.116Z,7.10
2022-09-23T07:51:37.129Z,6.10
2022-09-23T07:54:08.386Z,6.40
2022-09-23T07:56:37.746Z,7.10
2022-09-23T07:59:08.993Z,5.90
2022-09-23T08:01:40.337Z,5.70
2022-09-23T08:04:22.183Z,5.70
2022-09-23T08:06:54.261Z,5.80
2022-09-23T08:09:35.159Z,6.10
2022-09-23T08:12:02.549Z,6.00
2022-09-23T08:14:29.928Z,5.60
2022-09-23T08:16:57.856Z,5.70
2022-09-23T08:19:25.321Z,5.80
2022-09-23T08:21:52.808Z,5.50
2022-09-23T08:24:24.124Z,5.50
2022-09-23T08:26:53.634Z,5.50
2022-09-23T08:29:23.879Z,5.80
2022-09-23T08:31:52.499Z,6.20
2022-09-23T08:34:21.782Z,5.50
2022-09-23T08:36:50.207Z,6.20
2022-09-23T08:39:20.226Z,6.20
2022-09-23T08:42:07.607Z,6.90
2022-09-23T08:44:55.476Z,7.70
2022-09-23T08:47:34.965Z,7.00
2022-09-23T08:50:13.665Z,7.10
2022-09-23T08:52:59.012Z,6.60
2022-09-23T08:55:42.742Z,7.40
2022-09-23T08:58:38.538Z,8.30
2022-09-23T09:01:24.042Z,8.00
2022-09-23T09:04:05.231Z,8.10
2022-09-23T09:06:53.175Z,7.60
2022-09-23T09:09:33.727Z,7.30
2022-09-23T09:12:28.952Z,7.80
2022-09-23T09:15:06.049Z,6.90
2022-09-23T09:17:40.400Z,7.50
2022-09-23T09:20:24.735Z,7.90
2022-09-23T09:22:57.673Z,6.90
2022-09-23T09:25:44.046Z,7.10
2022-09-23T09:28:31.070Z,7.40
2022-09-23T09:31:11.286Z,7.50
2022-09-23T09:33:49.794Z,7.70
2022-09-23T09:36:42.381Z,7.90
2022-09-23T09:39:13.995Z,7.60
2022-09-23T09:41:52.199Z,7.90
2022-09-23T09:44:27.976Z,7.50
2022-09-23T09:47:15.152Z,6.60
2022-09-23T09:50:09.175Z,6.40
2022-09-23T09:52:42.790Z,6.70
2022-09-23T09:55:12.887Z,7.20
2022-09-23T09:58:08.154Z,7.40
2022-09-23T10:00:45.984Z,7.10
2022-09-23T10:03:13.355Z,6.70
2022-09-23T10:05:43.763Z,7.20
2022-09-23T10:08:27.196Z,6.70
2022-09-23T10:11:16.818Z,6.50
2022-09-23T10:14:17.530Z,8.20
2022-09-23T10:16:48.618Z,8.20
2022-09-23T10:19:28.938Z,7.90
2022-09-23T10:22:05.217Z,7.40
2022-09-23T10:24:36.636Z,6.40
2022-09-23T10:27:08.821Z,6.40
2022-09-23T10:29:45.893Z,7.20
2022-09-23T10:32:14.690Z,7.20
2022-09-23T10:34:48.938Z,6.80
2022-09-23T10:37:38.781Z,6.90
2022-09-23T10:40:56.968Z,7.20
2022-09-23T10:43:46.105Z,7.00
2022-09-23T10:46:38.334Z,7.40
2022-09-23T10:49:19.502Z,7.70
2022-09-23T10:55:09.212Z,7.30
2022-09-23T10:57:45.562Z,7.50
2022-09-23T11:01:02.397Z,6.20
2022-09-23T11:04:01.439Z,6.50
2022-09-23T11:06:56.491Z,7.40
2022-09-23T11:09:45.613Z,6.50
2022-09-23T11:12:28.333Z,6.40
2022-09-23T11:15:16.554Z,6.70
2022-09-23T11:18:12.930Z,7.50
2022-09-23T11:21:23.407Z,6.50
2022-09-23T11:24:08.221Z,6.30
2022-09-23T11:27:05.959Z,5.70
2022-09-23T11:30:06.273Z,6.40
2022-09-23T11:33:14.356Z,5.90
2022-09-23T11:35:50.900Z,5.80
2022-09-23T11:38:27.773Z,6.00
2022-09-23T11:41:14.639Z,6.70
2022-09-23T11:43:44.608Z,6.40
2022-09-23T11:46:31.989Z,5.60
2022-09-23T11:49:09.495Z,5.90
2022-09-23T11:52:04.388Z,5.80
2022-09-23T11:54:45.397Z,4.90
2022-09-23T12:00:03.314Z,4.50
2022-09-23T12:03:06.316Z,4.90
2022-09-23T12:05:42.955Z,4.90
2022-09-23T12:08:26.788Z,4.00
2022-09-23T12:11:49.027Z,4.30
2022-09-23T12:14:41.990Z,3.20
2022-09-23T12:17:43.531Z,2.60
2022-09-23T12:20:42.268Z,2.30
2022-09-23T12:23:18.348Z,2.80
2022-09-23T12:26:02.466Z,2.30
2022-09-23T12:28:46.751Z,2.80
2022-09-23T12:31:18.329Z,3.60
2022-09-23T12:33:51.447Z,3.60
2022-09-23T12:36:35.971Z,4.30
2022-09-23T12:39:04.399Z,3.70
2022-09-23T12:41:38.170Z,4.30
2022-09-23T12:44:12.439Z,4.10
2022-09-23T12:46:45.390Z,3.00
2022-09-23T12:49:37.305Z,3.20
2022-09-23T12:52:10.705Z,3.60
2022-09-23T12:54:40.514Z,3.90
2022-09-23T12:57:31.655Z,3.10
2022-09-23T13:00:12.768Z,3.40
2022-09-23T13:03:09.189Z,3.10
2022-09-23T13:06:25.409Z,2.90
2022-09-23T13:08:53.135Z,3.20
2022-09-23T13:11:30.612Z,3.90
2022-09-23T13:14:02.726Z,3.10
2022-09-23T13:16:33.839Z,3.20
2022-09-23T13:19:04.654Z,3.20
2022-09-23T13:21:44.625Z,2.90
2022-09-23T13:24:24.971Z,3.80
2022-09-23T13:27:05.764Z,3.30
2022-09-23T13:30:13.828Z,2.90
2022-09-23T13:32:50.200Z,2.80
2022-09-23T13:35:30.800Z,2.70
2022-09-23T13:37:58.311Z,2.20
2022-09-23T13:40:28.802Z,2.70
2022-09-23T13:43:09.041Z,2.70
2022-09-23T13:45:43.033Z,2.40
2022-09-23T13:48:15.440Z,2.80
2022-09-23T13:50:50.270Z,2.30
2022-09-23T13:53:30.114Z,2.50
2022-09-23T13:56:15.499Z,2.80
2022-09-23T13:58:43.456Z,2.50
2022-09-23T14:01:33.789Z,2.80
2022-09-23T14:04:02.610Z,3.20
2022-09-23T14:06:31.706Z,2.70
2022-09-23T14:09:01.792Z,2.60
2022-09-23T14:11:35.446Z,2.50
2022-09-23T14:14:07.795Z,2.10
2022-09-23T14:16:39.721Z,2.40
2022-09-23T14:19:14.007Z,2.30
2022-09-23T14:21:41.338Z,2.40
2022-09-23T14:24:34.562Z,2.10
2022-09-23T14:27:07.966Z,1.80
2022-09-23T14:29:38.962Z,2.50
2022-09-23T14:34:48.420Z,2.10
2022-09-23T14:37:37.527Z,2.40
2022-09-23T14:40:19.402Z,2.40
2022-09-23T14:42:56.870Z,2.20
2022-09-23T14:45:28.014Z,2.30
2022-09-23T14:48:08.758Z,2.30
2022-09-23T14:50:37.084Z,2.30
2022-09-23T14:53:26.682Z,2.20
2022-09-23T14:56:07.991Z,2.10
2022-09-23T14:59:26.176Z,2.30
2022-09-23T15:01:53.815Z,2.60
2022-09-23T15:04:24.142Z,2.50
2022-09-23T15:06:58.592Z,2.30
2022-09-23T15:09:31.444Z,2.10
2022-09-23T15:12:12.316Z,2.40
2022-09-23T15:14:51.781Z,2.40
2022-09-23T15:17:35.181Z,2.30
2022-09-23T15:20:25.338Z,2.20
2022-09-23T15:22:55.204Z,3.00
2022-09-23T15:25:34.211Z,2.70
2022-09-23T15:28:10.556Z,2.30
2022-09-23T15:30:39.381Z,2.20
2022-09-23T15:33:09.489Z,2.00
2022-09-23T15:35:37.097Z,2.30
2022-09-23T15:38:04.470Z,2.50
2022-09-23T15:40:37.438Z,2.40
2022-09-23T15:43:21.693Z,2.40
2022-09-23T15:45:57.209Z,2.70
2022-09-23T15:48:32.588Z,2.50
2022-09-23T15:51:06.907Z,2.90
2022-09-23T15:53:34.641Z,2.50
2022-09-23T15:56:02.354Z,2.40
2022-09-23T15:58:30.025Z,2.30
2022-09-23T16:00:57.893Z,2.00
2022-09-23T16:03:30.376Z,1.90
2022-09-23T16:06:02.378Z,2.00
2022-09-23T16:08:32.779Z,2.10
2022-09-23T16:11:00.400Z,2.10
2022-09-23T16:13:27.903Z,1.60
2022-09-23T16:15:56.328Z,2.10
2022-09-23T16:18:23.756Z,2.30
2022-09-23T16:20:51.263Z,2.60
2022-09-23T16:23:38.726Z,2.70
2022-09-23T16:26:13.959Z,2.20
2022-09-23T16:28:42.313Z,2.40
2022-09-23T16:31:11.865Z,3.20
2022-09-23T16:33:39.803Z,3.20
2022-09-23T16:36:16.676Z,2.80
2022-09-23T16:38:44.450Z,2.30
2022-09-23T16:41:11.887Z,2.50
2022-09-23T16:43:39.760Z,2.10
2022-09-23T16:46:12.203Z,2.40
2022-09-23T16:48:40.963Z,2.00
2022-09-23T16:51:15.386Z,2.30
2022-09-23T16:53:42.796Z,1.90
2022-09-23T16:56:13.066Z,1.90
2022-09-23T16:58:40.682Z,2.40
2022-09-23T17:01:34.590Z,2.20
2022-09-23T17:04:02.115Z,2.00
2022-09-23T17:06:29.863Z,1.80
2022-09-23T17:08:57.244Z,2.20
2022-09-23T17:11:24.704Z,2.20
2022-09-23T17:13:52.175Z,2.80
2022-09-23T17:16:30.034Z,3.20
2022-09-23T17:18:58.584Z,3.20
2022-09-23T17:21:27.430Z,3.40
2022-09-23T17:23:56.537Z,2.20
2022-09-23T17:26:26.138Z,2.70
2022-09-23T17:28:56.532Z,2.40
2022-09-23T17:31:25.367Z,2.10
2022-09-23T17:33:53.405Z,2.40
2022-09-23T17:36:21.668Z,3.40
2022-09-23T17:38:53.521Z,3.50
2022-09-23T17:41:21.779Z,5.00
2022-09-23T17:43:56.645Z,6.20
2022-09-23T17:46:24.570Z,7.70
2022-09-23T17:48:55.268Z,9.90
2022-09-23T17:51:24.123Z,12.40
2022-09-23T17:53:51.849Z,9.70
2022-09-23T17:56:24.900Z,8.50
2022-09-23T17:58:53.633Z,8.30
2022-09-23T18:01:26.238Z,8.00
2022-09-23T18:04:01.640Z,7.10
2022-09-23T18:06:31.910Z,5.80
2022-09-23T18:09:03.711Z,5.00
2022-09-23T18:11:43.901Z,4.80
2022-09-23T18:14:18.787Z,4.40
2022-09-23T18:16:49.998Z,4.10
2022-09-23T18:19:20.370Z,4.00
2022-09-23T18:21:51.982Z,3.10
2022-09-23T18:24:35.087Z,3.70
2022-09-23T18:27:02.564Z,3.30
2022-09-23T18:29:30.297Z,2.80
2022-09-23T18:31:59.247Z,3.00
2022-09-23T18:34:26.936Z,3.60
2022-09-23T18:36:56.115Z,3.00
2022-09-23T18:39:23.523Z,3.80
2022-09-23T18:41:51.086Z,3.80
2022-09-23T18:44:19.946Z,4.20
2022-09-23T18:46:47.347Z,4.50
2022-09-23T18:49:33.228Z,4.40
2022-09-23T18:52:00.879Z,5.00
2022-09-23T18:54:29.231Z,5.60
2022-09-23T18:56:57.456Z,5.90
2022-09-23T18:59:29.694Z,6.60
2022-09-23T19:01:57.405Z,7.70
2022-09-23T19:04:26.703Z,8.40
2022-09-23T19:06:56.480Z,9.20
2022-09-23T19:09:24.566Z,9.80
2022-09-23T19:11:52.804Z,9.50
2022-09-23T19:14:20.496Z,7.60
2022-09-23T19:16:51.108Z,7.40
2022-09-23T19:19:18.517Z,7.90
2022-09-23T19:21:45.866Z,9.40
2022-09-23T19:24:16.105Z,13.00
2022-09-23T19:26:44.139Z,7.90
2022-09-23T19:29:19.412Z,9.30
2022-09-23T19:31:47.117Z,7.20
2022-09-23T19:34:17.940Z,10.50
2022-09-23T19:36:47.639Z,12.20
2022-09-23T19:39:21.223Z,10.80
2022-09-23T19:41:50.622Z,11.20
2022-09-23T19:44:20.032Z,13.80
2022-09-23T19:46:53.444Z,11.30
2022-09-23T19:49:24.736Z,10.70
2022-09-23T19:51:55.844Z,8.40
2022-09-23T19:54:26.514Z,6.90
2022-09-23T19:56:53.969Z,7.40
2022-09-23T19:59:21.350Z,5.70
2022-09-23T20:01:49.156Z,5.20
2022-09-23T20:04:17.159Z,4.90
2022-09-23T20:06:45.955Z,4.30
2022-09-23T20:09:13.697Z,4.70
2022-09-23T20:11:43.141Z,4.80
2022-09-23T20:14:12.004Z,4.60
2022-09-23T20:16:40.431Z,4.90
2022-09-23T20:19:07.871Z,5.50
2022-09-23T20:21:35.532Z,6.10
2022-09-23T20:24:07.739Z,6.30
2022-09-23T20:26:53.812Z,5.40
2022-09-23T20:29:21.255Z,5.10
2022-09-23T20:31:48.775Z,5.00
2022-09-23T20:34:16.197Z,4.80
2022-09-23T20:36:44.219Z,5.30
2022-09-23T20:39:11.637Z,5.30
2022-09-23T20:41:39.688Z,4.60
2022-09-23T20:44:12.582Z,4.50
2022-09-23T20:46:47.825Z,4.10
2022-09-23T20:49:17.758Z,4.20
2022-09-23T20:51:47.616Z,4.30
2022-09-23T20:54:17.868Z,4.70
2022-09-23T20:56:46.370Z,4.10
2022-09-23T20:59:15.038Z,4.90
2022-09-23T21:01:42.814Z,5.00
2022-09-23T21:04:10.478Z,4.60
2022-09-23T21:06:39.148Z,5.80
2022-09-23T21:09:07.237Z,5.20
2022-09-23T21:11:34.764Z,5.10
2022-09-23T21:14:02.611Z,4.90
2022-09-23T21:16:30.377Z,5.00
2022-09-23T21:18:58.294Z,4.90
2022-09-23T21:21:26.130Z,4.60
2022-09-23T21:23:53.629Z,4.60
2022-09-23T21:26:24.639Z,4.30
2022-09-23T21:29:00.375Z,4.20
2022-09-23T21:31:35.715Z,5.10
2022-09-23T21:34:11.192Z,4.90
2022-09-23T21:36:44.243Z,4.90
2022-09-23T21:39:12.513Z,4.50
2022-09-23T21:41:40.203Z,4.80
2022-09-23T21:44:08.505Z,5.10
2022-09-23T21:46:36.820Z,5.20
2022-09-23T21:49:05.017Z,4.60
2022-09-23T21:51:40.783Z,5.00
2022-09-23T21:54:15.478Z,4.90
2022-09-23T21:56:44.335Z,4.80
2022-09-23T21:59:11.816Z,5.50
2022-09-23T22:01:43.593Z,5.30
2022-09-23T22:04:17.004Z,5.30
2022-09-23T22:06:45.896Z,4.10
2022-09-23T22:09:18.906Z,4.50
2022-09-23T22:12:05.168Z,3.30
2022-09-23T22:14:32.565Z,3.50
2022-09-23T22:17:03.718Z,3.50
2022-09-23T22:24:34.991Z,3.10
2022-09-23T22:27:02.314Z,3.50
2022-09-23T22:29:48.147Z,3.90
2022-09-23T22:32:34.298Z,4.00
2022-09-23T22:35:01.794Z,3.80
2022-09-23T22:37:36.481Z,3.40
2022-09-23T22:40:11.264Z,4.10
2022-09-23T22:42:39.376Z,4.20
2022-09-23T22:45:08.364Z,4.10
2022-09-23T22:47:38.910Z,4.60
2022-09-23T22:50:09.057Z,4.50
2022-09-23T22:52:36.560Z,4.50
2022-09-23T22:55:06.710Z,4.70
2022-09-23T22:57:34.278Z,4.10
2022-09-23T23:00:04.025Z,4.90
2022-09-23T23:02:31.475Z,4.10
2022-09-23T23:05:00.450Z,4.40
2022-09-23T23:07:27.785Z,4.40
2022-09-23T23:09:55.501Z,4.40
2022-09-23T23:12:22.843Z,4.70
2022-09-23T23:14:50.216Z,4.70
2022-09-23T23:17:18.638Z,5.10
2022-09-23T23:19:46.197Z,4.80
2022-09-23T23:22:13.560Z,4.70
2022-09-23T23:24:40.897Z,4.10
2022-09-23T23:27:08.242Z,4.70
2022-09-23T23:29:35.540Z,4.30
2022-09-23T23:32:02.944Z,4.50
2022-09-23T23:34:30.251Z,4.60
2022-09-23T23:36:57.619Z,4.60
2022-09-23T23:39:25.506Z,4.40
2022-09-23T23:41:57.769Z,4.70
2022-09-23T23:44:27.086Z,4.30
2022-09-23T23:46:54.920Z,4.20
2022-09-23T23:49:22.875Z,4.40
2022-09-23T23:51:50.431Z,4.50
2022-09-23T23:54:17.857Z,4.30
2022-09-23T23:56:45.505Z,4.70
2022-09-23T23:59:13.056Z,4.40
